Time;durP1;ratioP1;P1;durP2;ratioP2;P2;SDS_P1;SDS_P2;PMS_P1;PMS_P2;Temp;Humidity;BMP_temperature;BMP_pressure;BME280_temperature;BME280_humidity;BME280_pressure;Samples;Min_cycle;Max_cycle;Signal;HPM_P1;HPM_P2
2022/03/29 16:24:37;;;;;;;26.77;12.77;;;12.30;99.90;;;;;;5047319;28;1911017;-68
2022/03/29 16:27:05;;;;;;;20.73;12.70;;;12.20;99.90;;;;;;5114184;28;20275;-69
2022/03/29 16:29:32;;;;;;;21.13;13.10;;;12.20;99.90;;;;;;5114180;28;20246;-68
2022/03/29 16:32:00;;;;;;;24.97;14.10;;;12.20;99.90;;;;;;5114199;28;20229;-68
2022/03/29 16:34:27;;;;;;;23.17;13.13;;;12.10;99.90;;;;;;5114636;28;20207;-68
2022/03/29 16:36:58;;;;;;;22.30;12.70;;;12.10;99.90;;;;;;5114122;28;20203;-68
2022/03/29 16:39:26;;;;;;;26.63;14.07;;;12.10;99.90;;;;;;5114018;28;20214;-69
2022/03/29 16:41:55;;;;;;;25.53;13.37;;;12.00;99.90;;;;;;5114038;28;20242;-68
2022/03/29 16:44:22;;;;;;;25.00;13.57;;;12.00;99.90;;;;;;5113789;28;20554;-68
2022/03/29 16:46:50;;;;;;;23.83;12.93;;;12.00;99.90;;;;;;5113870;28;20215;-69
2022/03/29 16:49:19;;;;;;;22.63;13.17;;;11.90;99.90;;;;;;5113995;28;20596;-69
2022/03/29 16:51:48;;;;;;;24.23;13.37;;;11.90;99.90;;;;;;5112752;28;20223;-69
2022/03/29 16:54:16;;;;;;;23.67;13.17;;;11.80;99.90;;;;;;5113565;28;20200;-69
2022/03/29 16:56:43;;;;;;;25.63;13.40;;;11.80;99.90;;;;;;5113662;28;20199;-67
2022/03/29 16:59:12;;;;;;;24.10;14.97;;;11.80;99.90;;;;;;5113674;28;20215;-69
2022/03/29 17:01:42;;;;;;;22.00;13.77;;;11.80;99.90;;;;;;5113510;28;20260;-68
2022/03/29 17:04:09;;;;;;;29.27;14.57;;;11.70;99.90;;;;;;5113659;28;20576;-68
2022/03/29 17:06:38;;;;;;;25.40;13.63;;;11.70;99.90;;;;;;5113687;28;20679;-68
2022/03/29 17:09:06;;;;;;;23.43;14.30;;;11.60;99.90;;;;;;5113485;28;20649;-68
2022/03/29 17:11:38;;;;;;;23.93;13.73;;;11.60;99.90;;;;;;5113214;28;20300;-69
2022/03/29 17:14:08;;;;;;;26.17;14.73;;;11.60;99.90;;;;;;5112984;28;20203;-68
2022/03/29 17:16:38;;;;;;;22.07;13.47;;;11.60;99.90;;;;;;5113471;28;20213;-68
2022/03/29 17:19:07;;;;;;;21.27;13.40;;;11.50;99.90;;;;;;5113101;28;20212;-67
2022/03/29 17:21:34;;;;;;;23.20;14.10;;;11.50;99.90;;;;;;5113170;28;20208;-69
2022/03/29 17:24:04;;;;;;;22.70;14.37;;;11.50;99.90;;;;;;5094686;28;20239;-68
2022/03/29 17:26:31;;;;;;;26.00;14.97;;;11.50;99.90;;;;;;5113102;28;20299;-68
2022/03/29 17:28:59;;;;;;;25.37;14.33;;;11.50;99.90;;;;;;5112809;28;20311;-69
2022/03/29 17:31:28;;;;;;;21.40;13.50;;;11.50;99.90;;;;;;5060921;28;20207;-68
2022/03/29 17:33:59;;;;;;;26.47;15.03;;;11.50;99.90;;;;;;5112747;28;20203;-68
2022/03/29 17:36:27;;;;;;;25.47;14.77;;;11.50;99.90;;;;;;5112971;28;20188;-69
2022/03/29 17:38:54;;;;;;;25.77;14.73;;;11.40;99.90;;;;;;5112702;28;20710;-67
2022/03/29 17:41:22;;;;;;;28.93;15.97;;;11.40;99.90;;;;;;5094645;28;20225;-69
2022/03/29 17:43:50;;;;;;;26.90;15.97;;;11.40;99.90;;;;;;5112619;28;20210;-69
2022/03/29 17:46:21;;;;;;;28.37;15.67;;;11.40;99.90;;;;;;5112400;28;20222;-68
2022/03/29 17:48:49;;;;;;;30.00;16.47;;;11.40;99.90;;;;;;5112780;28;20258;-68
2022/03/29 17:51:19;;;;;;;28.30;15.90;;;11.40;99.90;;;;;;5112941;28;20657;-68
2022/03/29 17:53:46;;;;;;;27.60;14.93;;;11.30;99.90;;;;;;5113019;28;20660;-67
2022/03/29 17:56:14;;;;;;;27.17;15.70;;;11.30;99.90;;;;;;5112298;28;20241;-68
2022/03/29 17:58:42;;;;;;;26.87;15.47;;;11.30;99.90;;;;;;5112770;28;20700;-67
2022/03/29 18:01:10;;;;;;;30.97;16.37;;;11.30;99.90;;;;;;5059969;28;20214;-68
2022/03/29 18:03:40;;;;;;;24.73;14.40;;;11.30;99.90;;;;;;5112319;28;20214;-68
2022/03/29 18:06:08;;;;;;;25.03;14.83;;;11.30;99.90;;;;;;5112288;28;20313;-69
2022/03/29 18:08:38;;;;;;;28.40;14.93;;;11.30;99.90;;;;;;5112675;28;20689;-67
2022/03/29 18:11:05;;;;;;;29.43;15.50;;;11.20;99.90;;;;;;5112495;28;20207;-69
2022/03/29 18:13:33;;;;;;;26.43;14.27;;;11.20;99.90;;;;;;5112493;28;20694;-68
2022/03/29 18:16:03;;;;;;;25.53;13.73;;;11.20;99.90;;;;;;5112258;28;20203;-67
2022/03/29 18:18:31;;;;;;;26.33;15.00;;;11.20;99.90;;;;;;5112230;28;20208;-69
2022/03/29 18:20:59;;;;;;;26.67;15.13;;;11.20;99.90;;;;;;5112422;28;20656;-68
2022/03/29 18:23:26;;;;;;;26.87;15.03;;;11.20;99.90;;;;;;5106218;28;20257;-68
2022/03/29 18:25:55;;;;;;;29.97;14.57;;;11.20;99.90;;;;;;5112069;28;20203;-68
2022/03/29 18:28:23;;;;;;;25.90;14.90;;;11.10;99.90;;;;;;5112112;28;20215;-68
2022/03/29 18:30:52;;;;;;;26.43;15.67;;;11.10;99.90;;;;;;5093829;28;20199;-68
2022/03/29 18:33:20;;;;;;;26.43;15.20;;;11.10;99.90;;;;;;5077784;28;20253;-68
2022/03/29 18:35:49;;;;;;;31.93;16.73;;;11.10;99.90;;;;;;5111991;28;20199;-69
2022/03/29 18:38:18;;;;;;;28.77;16.07;;;11.00;99.90;;;;;;5111985;28;20261;-69
2022/03/29 18:40:47;;;;;;;29.00;14.73;;;11.00;99.90;;;;;;5111953;28;20203;-67
2022/03/29 18:43:17;;;;;;;28.60;15.83;;;11.00;99.90;;;;;;5112020;28;20210;-68
2022/03/29 18:45:44;;;;;;;27.33;15.37;;;10.90;99.90;;;;;;5111911;28;20262;-68
2022/03/29 18:48:14;;;;;;;31.43;15.97;;;10.90;99.90;;;;;;5060066;28;20204;-68
2022/03/29 18:50:42;;;;;;;32.40;16.07;;;10.90;99.90;;;;;;5111950;28;20215;-68
2022/03/29 18:53:11;;;;;;;29.83;15.53;;;10.80;99.90;;;;;;5112058;28;20214;-69
2022/03/29 18:55:40;;;;;;;26.33;14.77;;;10.80;99.90;;;;;;5111839;28;20258;-68
2022/03/29 18:58:08;;;;;;;28.07;14.43;;;10.70;99.90;;;;;;5112076;28;20216;-68
2022/03/29 19:00:39;;;;;;;26.00;14.50;;;10.60;99.90;;;;;;5111752;28;20223;-68
2022/03/29 19:03:08;;;;;;;23.77;13.90;;;10.60;99.90;;;;;;5059379;28;20198;-69
2022/03/29 19:05:36;;;;;;;22.53;12.83;;;10.50;99.90;;;;;;5111921;28;20208;-69
2022/03/29 19:08:04;;;;;;;21.00;13.47;;;10.50;99.90;;;;;;5111665;28;20208;-68
2022/03/29 19:10:32;;;;;;;20.80;12.80;;;10.50;99.90;;;;;;5111860;28;20290;-68
2022/03/29 19:13:00;;;;;;;25.17;13.87;;;10.50;99.90;;;;;;5076813;28;20211;-68
2022/03/29 19:15:29;;;;;;;25.63;14.77;;;10.50;99.90;;;;;;5061683;28;20208;-68
2022/03/29 19:17:58;;;;;;;21.60;13.23;;;10.40;99.90;;;;;;5079521;28;20206;-67
2022/03/29 19:20:29;;;;;;;22.83;13.43;;;10.40;99.90;;;;;;5115687;28;20310;-68
2022/03/29 19:22:56;;;;;;;21.60;13.27;;;10.40;99.90;;;;;;5097630;28;20235;-68
2022/03/29 19:25:24;;;;;;;24.60;14.10;;;10.40;99.90;;;;;;5115737;28;20196;-69
2022/03/29 19:27:52;;;;;;;25.60;13.50;;;10.40;99.90;;;;;;5115586;28;20203;-67
2022/03/29 19:30:20;;;;;;;25.10;13.67;;;10.30;99.90;;;;;;5115458;28;20208;-69
2022/03/29 19:32:53;;;;;;;25.07;14.17;;;10.30;99.90;;;;;;5115574;28;20214;-68
2022/03/29 19:35:24;;;;;;;25.57;14.03;;;10.30;99.90;;;;;;5115324;28;20191;-68
2022/03/29 19:37:54;;;;;;;24.70;14.17;;;10.30;99.90;;;;;;5115565;28;20184;-70
2022/03/29 19:40:22;;;;;;;26.07;14.00;;;10.30;99.90;;;;;;5115745;28;20209;-69
2022/03/29 19:43:14;;;;;;;24.00;13.60;;;10.20;99.90;;;;;;5115360;28;20256;-69
2022/03/29 19:45:42;;;;;;;24.03;13.37;;;10.20;99.90;;;;;;5069531;28;20207;-69
2022/03/29 19:48:09;;;;;;;24.73;14.23;;;10.20;99.90;;;;;;5115114;28;20207;-68
2022/03/29 19:50:38;;;;;;;25.43;13.80;;;10.20;99.90;;;;;;5114916;28;20304;-69
2022/03/29 19:53:06;;;;;;;26.30;14.20;;;10.20;99.90;;;;;;5115322;28;20591;-69
2022/03/29 19:55:34;;;;;;;28.17;15.17;;;10.20;99.90;;;;;;5115237;28;20247;-68
2022/03/29 19:58:01;;;;;;;22.90;14.03;;;10.20;99.90;;;;;;5114919;28;20205;-69
2022/03/29 20:00:31;;;;;;;26.93;15.10;;;10.20;99.90;;;;;;5115111;28;20258;-69
2022/03/29 20:02:58;;;;;;;24.17;14.70;;;10.20;99.90;;;;;;5115145;28;20207;-68
2022/03/29 20:05:27;;;;;;;26.27;14.90;;;10.20;99.90;;;;;;5114957;28;20196;-68
2022/03/29 20:07:56;;;;;;;24.93;14.97;;;10.10;99.90;;;;;;5115083;28;20648;-69
2022/03/29 20:10:24;;;;;;;30.30;16.47;;;10.10;99.90;;;;;;5115055;28;20649;-68
2022/03/29 20:12:53;;;;;;;29.37;15.00;;;10.10;99.90;;;;;;5114527;28;20212;-69
2022/03/29 20:15:20;;;;;;;27.07;15.10;;;10.10;99.90;;;;;;5114817;28;20286;-68
2022/03/29 20:17:50;;;;;;;36.13;18.67;;;10.10;99.90;;;;;;5114578;28;20576;-68
2022/03/29 20:20:18;;;;;;;29.47;16.93;;;10.10;99.90;;;;;;5114443;28;20633;-70
2022/03/29 20:22:47;;;;;;;28.83;16.63;;;10.00;99.90;;;;;;5114162;28;20203;-69
2022/03/29 20:25:16;;;;;;;30.97;17.13;;;10.00;99.90;;;;;;5062847;28;20203;-67
2022/03/29 20:27:45;;;;;;;28.87;16.73;;;10.00;99.90;;;;;;5114481;28;20361;-68
2022/03/29 20:30:13;;;;;;;32.13;18.10;;;10.00;99.90;;;;;;5114378;28;20204;-68
2022/03/29 20:32:41;;;;;;;33.40;16.83;;;10.00;99.90;;;;;;5114364;28;20203;-68
2022/03/29 20:35:09;;;;;;;37.40;21.13;;;10.00;99.90;;;;;;5114223;28;20294;-68
2022/03/29 20:37:37;;;;;;;39.57;20.67;;;10.00;99.90;;;;;;5114245;28;20208;-69
2022/03/29 20:40:05;;;;;;;39.07;20.43;;;10.00;99.90;;;;;;5114044;28;20221;-68
2022/03/29 20:42:34;;;;;;;39.40;19.97;;;10.00;99.90;;;;;;5113922;28;20200;-68
2022/03/29 20:45:02;;;;;;;34.43;19.60;;;10.00;99.90;;;;;;5114009;28;20245;-68
2022/03/29 20:47:29;;;;;;;36.30;19.20;;;9.90;99.90;;;;;;5113816;28;20206;-68
2022/03/29 20:49:57;;;;;;;34.43;18.83;;;9.90;99.90;;;;;;5113905;28;20195;-69
2022/03/29 20:52:24;;;;;;;32.63;18.63;;;9.90;99.90;;;;;;5113877;28;20212;-68
2022/03/29 20:54:52;;;;;;;31.70;18.17;;;9.90;99.90;;;;;;5113809;28;20203;-68
2022/03/29 20:57:19;;;;;;;30.87;17.03;;;9.90;99.90;;;;;;5113767;28;20203;-68
2022/03/29 20:59:49;;;;;;;30.47;17.40;;;9.80;99.90;;;;;;5113532;28;20284;-68
2022/03/29 21:02:17;;;;;;;33.67;18.20;;;9.80;99.90;;;;;;5113729;28;20192;-67
2022/03/29 21:04:44;;;;;;;34.43;18.63;;;9.80;99.90;;;;;;5113382;28;20213;-68
2022/03/29 21:07:12;;;;;;;29.43;17.23;;;9.70;99.90;;;;;;5113875;28;20652;-69
2022/03/29 21:09:39;;;;;;;36.73;19.87;;;9.70;99.90;;;;;;5113658;28;20199;-69
2022/03/29 21:12:07;;;;;;;32.60;18.33;;;9.70;99.90;;;;;;5113402;28;20235;-68
2022/03/29 21:14:34;;;;;;;34.53;18.17;;;9.70;99.90;;;;;;5113201;28;20219;-68
2022/03/29 21:17:03;;;;;;;36.67;20.57;;;9.60;99.90;;;;;;5113807;28;20610;-68
2022/03/29 21:19:30;;;;;;;32.73;18.10;;;9.60;99.90;;;;;;5113223;28;20280;-68
2022/03/29 21:21:57;;;;;;;32.37;17.57;;;9.50;99.90;;;;;;5113420;28;20299;-69
2022/03/29 21:24:24;;;;;;;32.23;17.57;;;9.50;99.90;;;;;;5112955;28;20271;-68
2022/03/29 21:26:52;;;;;;;31.33;18.03;;;9.50;99.90;;;;;;5113196;28;20239;-68
2022/03/29 21:29:19;;;;;;;33.93;17.53;;;9.40;99.90;;;;;;5113077;28;20227;-68
2022/03/29 21:31:46;;;;;;;36.13;17.73;;;9.30;99.90;;;;;;5113472;28;20207;-68
2022/03/29 21:34:15;;;;;;;34.77;19.03;;;9.30;99.90;;;;;;5113057;28;20234;-68
2022/03/29 21:36:44;;;;;;;36.37;19.73;;;9.20;99.90;;;;;;5113233;28;20286;-67
2022/03/29 21:39:12;;;;;;;36.90;20.07;;;9.20;99.90;;;;;;5112634;28;20203;-69
2022/03/29 21:41:39;;;;;;;38.13;20.43;;;9.20;99.90;;;;;;5113114;28;20255;-69
2022/03/29 21:44:06;;;;;;;35.93;19.53;;;9.20;99.90;;;;;;5112923;28;20235;-69
2022/03/29 21:46:33;;;;;;;40.30;19.90;;;9.10;99.90;;;;;;5113009;28;20568;-68
2022/03/29 21:49:00;;;;;;;34.97;20.03;;;9.10;99.90;;;;;;5113075;28;20234;-68
2022/03/29 21:51:28;;;;;;;39.10;19.17;;;9.10;99.90;;;;;;5112839;28;20286;-69
2022/03/29 21:53:55;;;;;;;33.77;19.77;;;9.00;99.90;;;;;;5113099;28;20707;-67
2022/03/29 21:56:24;;;;;;;34.30;20.00;;;9.00;99.90;;;;;;5112866;28;20283;-68
2022/03/29 21:58:51;;;;;;;39.17;19.37;;;9.00;99.90;;;;;;5113086;28;20200;-68
2022/03/29 22:01:18;;;;;;;34.13;19.53;;;8.90;99.90;;;;;;5112728;28;20654;-68
2022/03/29 22:03:45;;;;;;;37.43;19.77;;;8.90;99.90;;;;;;5112551;28;20247;-68
2022/03/29 22:06:13;;;;;;;40.03;20.87;;;8.90;99.90;;;;;;5112527;28;20245;-69
2022/03/29 22:08:41;;;;;;;33.50;18.90;;;8.90;99.90;;;;;;5112342;28;20203;-68
2022/03/29 22:11:08;;;;;;;34.67;19.40;;;8.80;99.90;;;;;;5112801;28;20309;-69
2022/03/29 22:13:35;;;;;;;33.00;18.27;;;8.80;99.90;;;;;;5112243;28;20405;-69
2022/03/29 22:16:02;;;;;;;42.33;20.77;;;8.80;99.90;;;;;;5112761;28;20668;-69
2022/03/29 22:18:29;;;;;;;39.33;20.60;;;8.80;99.90;;;;;;5112510;28;20628;-68
2022/03/29 22:20:56;;;;;;;39.10;21.07;;;8.80;99.90;;;;;;5112413;28;20210;-68
2022/03/29 22:23:23;;;;;;;35.30;21.40;;;8.80;99.90;;;;;;5112366;28;20235;-67
2022/03/29 22:25:51;;;;;;;42.20;21.00;;;8.80;99.90;;;;;;5112274;28;20234;-68
2022/03/29 22:28:19;;;;;;;40.50;20.73;;;8.70;99.90;;;;;;5112366;28;20662;-69
2022/03/29 22:30:47;;;;;;;34.10;19.83;;;8.70;99.90;;;;;;5112205;28;20314;-69
2022/03/29 22:33:14;;;;;;;38.03;20.73;;;8.70;99.90;;;;;;5112023;28;20366;-69
2022/03/29 22:35:41;;;;;;;36.57;20.23;;;8.70;99.90;;;;;;5112546;28;20629;-69
2022/03/29 22:38:08;;;;;;;35.27;20.57;;;8.70;99.90;;;;;;5112594;28;20219;-68
2022/03/29 22:40:36;;;;;;;36.27;20.50;;;8.60;99.90;;;;;;5112274;28;20632;-68
2022/03/29 22:43:05;;;;;;;40.10;21.70;;;8.60;99.90;;;;;;5112413;28;20620;-69
2022/03/29 22:45:32;;;;;;;36.07;20.87;;;8.60;99.90;;;;;;5111993;28;20207;-67
2022/03/29 22:47:59;;;;;;;37.80;21.17;;;8.60;99.90;;;;;;5112389;28;20294;-69
2022/03/29 22:50:28;;;;;;;37.83;22.23;;;8.50;99.90;;;;;;5113924;28;20254;-69
2022/03/29 22:52:56;;;;;;;36.40;20.70;;;8.50;99.90;;;;;;5116596;28;20729;-68
2022/03/29 22:55:24;;;;;;;38.17;20.70;;;8.50;99.90;;;;;;5115994;28;20199;-68
2022/03/29 22:57:54;;;;;;;39.23;21.13;;;8.40;99.90;;;;;;5116518;28;20660;-69
2022/03/29 23:00:23;;;;;;;37.27;20.73;;;8.40;99.90;;;;;;5116334;28;20258;-68
2022/03/29 23:02:50;;;;;;;38.30;20.97;;;8.40;99.90;;;;;;5116316;28;20231;-68
2022/03/29 23:05:17;;;;;;;36.33;20.97;;;8.40;99.90;;;;;;5116169;28;20635;-68
2022/03/29 23:07:44;;;;;;;40.23;22.53;;;8.30;99.90;;;;;;5115935;28;20294;-68
2022/03/29 23:10:13;;;;;;;37.43;21.10;;;8.30;99.90;;;;;;5116086;28;20314;-68
2022/03/29 23:12:40;;;;;;;38.10;22.40;;;8.30;99.90;;;;;;5116179;28;20721;-69
2022/03/29 23:15:08;;;;;;;36.53;21.10;;;8.30;99.90;;;;;;5115949;28;20252;-68
2022/03/29 23:17:37;;;;;;;36.37;20.70;;;8.20;99.90;;;;;;5115765;28;20290;-71
2022/03/29 23:20:05;;;;;;;33.67;19.73;;;8.20;99.90;;;;;;5115722;28;20287;-69
2022/03/29 23:22:32;;;;;;;37.40;20.83;;;8.20;99.90;;;;;;5115467;28;20246;-69
2022/03/29 23:24:59;;;;;;;37.60;20.17;;;8.10;99.90;;;;;;5115982;28;20276;-68
2022/03/29 23:27:26;;;;;;;36.30;20.97;;;8.10;99.90;;;;;;5115631;28;20641;-68
2022/03/29 23:29:53;;;;;;;36.33;20.90;;;8.10;99.90;;;;;;5115673;28;20242;-69
2022/03/29 23:32:20;;;;;;;35.73;20.10;;;8.10;99.90;;;;;;5115669;28;20246;-69
2022/03/29 23:34:49;;;;;;;45.23;22.13;;;8.10;99.90;;;;;;5115375;28;20204;-69
2022/03/29 23:37:16;;;;;;;40.17;22.40;;;8.10;99.90;;;;;;5115220;28;20295;-69
2022/03/29 23:39:42;;;;;;;41.63;22.97;;;8.10;99.90;;;;;;5115718;28;20631;-68
2022/03/29 23:42:10;;;;;;;39.57;22.83;;;8.10;99.90;;;;;;5115417;28;20631;-69
2022/03/29 23:44:36;;;;;;;42.47;22.67;;;8.20;99.90;;;;;;5115556;28;20632;-68
2022/03/29 23:47:05;;;;;;;38.97;22.33;;;8.20;99.90;;;;;;5115220;28;20636;-68
2022/03/29 23:49:32;;;;;;;41.07;22.20;;;8.20;99.90;;;;;;5115284;28;20235;-67
2022/03/29 23:52:00;;;;;;;44.30;23.60;;;8.20;99.90;;;;;;5115414;28;20647;-68
2022/03/29 23:54:27;;;;;;;40.03;22.97;;;8.20;99.90;;;;;;5115023;28;20298;-68
2022/03/29 23:56:54;;;;;;;42.60;23.87;;;8.20;99.90;;;;;;5114936;28;20223;-69
2022/03/29 23:59:21;;;;;;;41.53;23.13;;;8.20;99.90;;;;;;5114824;28;20298;-69
